Terminal Aerodrome Forecast
Issued by NWS

Home | Current Version | Previous Version | Text Only | Print | Product List | Glossary On
Versions: 1 2 3 4 5 6 7 8 9 10 11 12 13 14 15 16
000
FTUS45 KGJT 262341
TAFTEX
TAF
KTEX 262341Z 2700/2724 30005KT P6SM VCTS SCT030CB BKN050
      TEMPO 2700/2702 VRB12G18KT P6SM -TSRA BKN030CB OVC050
     FM270300 12005KT P6SM VCTS SCT040CB BKN060
     FM270600 VRB04KT P6SM FEW050
     FM271800 29006KT P6SM VCTS SCT060CB BKN080=

USA.gov is the U.S. government's official web portal to all federal, state and local government web resources and services.